Time;durP1;ratioP1;P1;durP2;ratioP2;P2;SDS_P1;SDS_P2;PMS_P1;PMS_P2;Temp;Humidity;BMP_temperature;BMP_pressure;BME280_temperature;BME280_humidity;BME280_pressure;Samples;Min_cycle;Max_cycle;Signal;HPM_P1;HPM_P2
2023/12/14 00:01:20;;;;;;;16.27;12.45;;;5.80;1.00;;;;;;5156803;27;20239;-80
2023/12/14 00:03:47;;;;;;;16.90;13.02;;;5.70;1.00;;;;;;5157295;27;20292;-81
2023/12/14 00:06:15;;;;;;;16.55;12.10;;;5.70;1.00;;;;;;5155678;27;21080;-80
2023/12/14 00:08:44;;;;;;;20.58;15.20;;;5.70;1.00;;;;;;5126530;27;20232;-83
2023/12/14 00:11:12;;;;;;;18.15;13.48;;;5.60;1.00;;;;;;5157922;27;21114;-81
2023/12/14 00:13:39;;;;;;;22.58;15.55;;;5.60;1.00;;;;;;5155244;27;20291;-80
2023/12/14 00:16:07;;;;;;;18.20;12.73;;;5.60;1.00;;;;;;5152640;27;21518;-79
2023/12/14 00:18:34;;;;;;;20.58;13.25;;;5.60;1.00;;;;;;5155751;27;20311;-81
2023/12/14 00:21:01;;;;;;;19.50;14.88;;;5.60;1.00;;;;;;5156859;27;20255;-81
2023/12/14 00:23:29;;;;;;;18.52;14.75;;;5.60;1.00;;;;;;5157234;27;20241;-80
2023/12/14 00:25:57;;;;;;;18.98;14.35;;;5.50;1.00;;;;;;5154051;27;20944;-80
2023/12/14 00:28:24;;;;;;;20.42;15.02;;;5.50;1.00;;;;;;5153437;27;20290;-80
2023/12/14 00:30:51;;;;;;;17.55;14.45;;;5.50;1.00;;;;;;5157449;27;20276;-81
2023/12/14 00:33:18;;;;;;;17.80;13.73;;;5.50;1.00;;;;;;5156523;27;20620;-80
2023/12/14 00:35:45;;;;;;;19.85;14.15;;;5.50;1.00;;;;;;5159180;27;20330;-81
2023/12/14 00:38:12;;;;;;;20.70;13.98;;;5.50;1.00;;;;;;5158362;27;20297;-80
2023/12/14 00:40:39;;;;;;;18.95;14.63;;;5.50;1.00;;;;;;5153974;27;21060;-80
2023/12/14 00:43:07;;;;;;;16.35;12.90;;;5.50;1.00;;;;;;5159913;27;20235;-81
2023/12/14 00:45:34;;;;;;;17.00;13.43;;;5.40;1.00;;;;;;5153455;27;20719;-81
2023/12/14 00:48:01;;;;;;;19.13;13.30;;;5.40;1.00;;;;;;5153827;27;20295;-80
2023/12/14 00:50:28;;;;;;;20.08;13.23;;;5.40;1.00;;;;;;5154187;27;20250;-80
2023/12/14 00:52:55;;;;;;;19.48;13.77;;;5.50;1.00;;;;;;5156002;27;20231;-80
2023/12/14 00:55:22;;;;;;;16.13;12.57;;;5.30;1.00;;;;;;5142749;27;20399;-80
2023/12/14 00:57:49;;;;;;;17.83;12.40;;;5.20;1.00;;;;;;5140078;27;20259;-80
2023/12/14 01:00:19;;;;;;;17.02;12.30;;;5.20;1.00;;;;;;5156689;27;20231;-80
2023/12/14 01:02:46;;;;;;;17.35;13.18;;;5.20;1.00;;;;;;5141845;27;20237;-80
2023/12/14 01:05:13;;;;;;;17.50;12.23;;;5.10;1.00;;;;;;5155136;27;20699;-81
2023/12/14 01:07:40;;;;;;;16.17;12.57;;;5.20;1.00;;;;;;5152056;27;20739;-81
2023/12/14 01:10:08;;;;;;;17.88;12.18;;;5.20;1.00;;;;;;5153181;27;20653;-81
2023/12/14 01:12:36;;;;;;;16.45;11.82;;;5.20;1.00;;;;;;5152299;27;20270;-81
2023/12/14 01:15:03;;;;;;;15.65;12.10;;;5.10;1.00;;;;;;5152416;27;20238;-82
2023/12/14 01:17:31;;;;;;;21.38;12.48;;;5.10;1.00;;;;;;5153947;27;20721;-81
2023/12/14 01:20:00;;;;;;;14.90;11.32;;;5.10;1.00;;;;;;5153414;27;20238;-81
2023/12/14 01:22:27;;;;;;;17.00;12.07;;;5.10;1.00;;;;;;5151679;27;20247;-81
2023/12/14 01:24:54;;;;;;;18.63;13.13;;;5.00;1.00;;;;;;5155280;27;20234;-81
2023/12/14 01:27:21;;;;;;;14.52;11.90;;;5.10;1.00;;;;;;5136035;27;21181;-81
2023/12/14 01:29:49;;;;;;;16.40;10.65;;;5.00;1.00;;;;;;5151877;27;20265;-81
2023/12/14 01:32:16;;;;;;;15.63;11.25;;;5.10;1.00;;;;;;5154513;27;20242;-81
2023/12/14 01:34:44;;;;;;;16.70;11.68;;;5.10;1.00;;;;;;5152915;27;20325;-81
2023/12/14 01:37:12;;;;;;;15.13;11.07;;;5.10;1.00;;;;;;5135497;27;20234;-81
2023/12/14 01:39:39;;;;;;;18.10;12.02;;;5.10;1.00;;;;;;5152294;27;20243;-81
2023/12/14 01:42:06;;;;;;;14.75;11.70;;;5.10;1.00;;;;;;5153720;27;21057;-80
2023/12/14 01:44:32;;;;;;;17.45;12.10;;;5.10;1.00;;;;;;5153068;27;20582;-81
2023/12/14 01:46:59;;;;;;;14.32;12.07;;;5.10;1.00;;;;;;5154020;27;20249;-80
2023/12/14 01:49:26;;;;;;;16.70;11.70;;;5.10;1.00;;;;;;5152688;27;20231;-81
2023/12/14 01:51:55;;;;;;;14.65;11.23;;;5.10;1.00;;;;;;5155338;27;20797;-80
2023/12/14 01:54:22;;;;;;;13.80;10.60;;;5.10;1.00;;;;;;5155629;27;20319;-81
2023/12/14 01:56:48;;;;;;;16.98;12.10;;;5.10;1.00;;;;;;5150840;27;20333;-80
2023/12/14 01:59:16;;;;;;;15.27;11.18;;;5.20;1.00;;;;;;5154512;27;20293;-80
2023/12/14 02:01:45;;;;;;;12.85;10.70;;;5.20;1.00;;;;;;5152776;27;20797;-81
2023/12/14 02:04:12;;;;;;;13.20;10.18;;;5.20;1.00;;;;;;5150684;27;20235;-81
2023/12/14 02:06:40;;;;;;;12.55;9.85;;;5.10;1.00;;;;;;5149456;27;20248;-81
2023/12/14 02:09:11;;;;;;;14.05;10.02;;;5.10;1.00;;;;;;5154471;27;20260;-82
2023/12/14 02:11:38;;;;;;;11.70;9.68;;;5.10;1.00;;;;;;5153437;27;20266;-81
2023/12/14 02:14:06;;;;;;;14.90;9.38;;;5.10;1.00;;;;;;5152701;27;20269;-81
2023/12/14 02:16:33;;;;;;;12.02;9.60;;;5.10;1.00;;;;;;5154581;27;21085;-81
2023/12/14 02:19:00;;;;;;;12.82;10.20;;;5.10;1.00;;;;;;5153978;27;20260;-81
2023/12/14 02:21:27;;;;;;;11.20;9.63;;;5.00;1.00;;;;;;5152045;27;20242;-81
2023/12/14 02:23:56;;;;;;;12.43;9.82;;;5.10;1.00;;;;;;5153395;27;20237;-80
2023/12/14 02:26:23;;;;;;;10.82;9.15;;;5.00;1.00;;;;;;5153708;27;21042;-80
2023/12/14 02:28:51;;;;;;;12.02;8.55;;;5.00;1.00;;;;;;5155965;27;20321;-81
2023/12/14 02:31:20;;;;;;;13.30;8.85;;;5.00;1.00;;;;;;5153024;27;20302;-81
2023/12/14 02:33:47;;;;;;;11.88;9.05;;;5.00;1.00;;;;;;5153344;27;21012;-81
2023/12/14 02:36:14;;;;;;;12.77;9.35;;;5.00;1.00;;;;;;5156015;27;21016;-80
2023/12/14 02:38:42;;;;;;;12.82;9.35;;;5.00;1.00;;;;;;5149712;27;20238;-81
2023/12/14 02:41:11;;;;;;;11.32;8.90;;;4.90;1.00;;;;;;5152288;27;20310;-81
2023/12/14 02:43:40;;;;;;;13.38;8.35;;;4.90;1.00;;;;;;5148881;27;20241;-81
2023/12/14 02:46:07;;;;;;;10.02;8.40;;;4.90;1.00;;;;;;5153792;27;20238;-80
2023/12/14 02:48:34;;;;;;;13.90;9.27;;;4.90;1.00;;;;;;5155923;27;20728;-81
2023/12/14 02:51:01;;;;;;;12.50;10.63;;;4.90;1.00;;;;;;5153719;27;20234;-81
2023/12/14 02:53:28;;;;;;;13.32;10.02;;;4.90;1.00;;;;;;5154086;27;20282;-81
2023/12/14 02:55:55;;;;;;;12.40;9.20;;;4.90;1.00;;;;;;5155164;27;20238;-81
2023/12/14 02:58:23;;;;;;;13.00;10.07;;;4.80;1.00;;;;;;5153478;27;20295;-81
2023/12/14 03:00:50;;;;;;;16.38;10.60;;;4.80;1.00;;;;;;5159969;27;20287;-81
2023/12/14 03:03:17;;;;;;;11.15;9.52;;;4.80;1.00;;;;;;5156770;27;20239;-81
2023/12/14 03:05:46;;;;;;;11.38;9.50;;;4.80;1.00;;;;;;5157534;27;20230;-81
2023/12/14 03:08:14;;;;;;;14.70;11.10;;;4.80;1.00;;;;;;5147631;27;20246;-80
2023/12/14 03:10:43;;;;;;;13.32;9.90;;;4.80;1.00;;;;;;5157443;27;20810;-81
2023/12/14 03:16:35;;;;;;;14.63;10.48;;;4.70;1.00;;;;;;5544540;22;20726;-81
2023/12/14 03:19:03;;;;;;;16.45;10.98;;;4.70;1.00;;;;;;5162189;27;20246;-80
2023/12/14 03:21:30;;;;;;;14.70;11.07;;;4.60;1.00;;;;;;5156369;27;20295;-80
2023/12/14 03:23:57;;;;;;;11.38;9.50;;;4.70;1.00;;;;;;5168692;27;20299;-79
2023/12/14 03:26:24;;;;;;;14.20;10.93;;;4.80;1.00;;;;;;5154772;27;20716;-80
2023/12/14 03:29:38;;;;;;;14.80;10.65;;;4.80;1.00;;;;;;5175141;27;20237;-80
2023/12/14 03:32:07;;;;;;;15.43;11.18;;;4.80;1.00;;;;;;5164738;27;20640;-80
2023/12/14 03:34:34;;;;;;;14.77;10.55;;;4.70;1.00;;;;;;5158573;27;20708;-79
2023/12/14 03:37:01;;;;;;;11.98;9.07;;;4.70;1.00;;;;;;5154027;27;20230;-80
2023/12/14 03:39:28;;;;;;;13.10;10.82;;;4.70;1.00;;;;;;5151370;27;20254;-78
2023/12/14 03:41:55;;;;;;;16.33;10.55;;;4.70;1.00;;;;;;5153662;27;20242;-78
2023/12/14 03:44:23;;;;;;;14.30;10.30;;;4.70;1.00;;;;;;5166075;27;20237;-79
2023/12/14 03:46:50;;;;;;;14.07;9.98;;;4.70;1.00;;;;;;5170169;27;20249;-78
2023/12/14 03:49:19;;;;;;;14.35;9.75;;;4.70;1.00;;;;;;5151358;27;20235;-79
2023/12/14 03:51:45;;;;;;;13.95;10.52;;;4.70;1.00;;;;;;5148064;27;20262;-81
2023/12/14 03:54:13;;;;;;;12.88;10.10;;;4.70;1.00;;;;;;5154483;27;20261;-78
2023/12/14 03:56:40;;;;;;;10.88;9.15;;;4.70;1.00;;;;;;5170587;27;20241;-79
2023/12/14 03:59:07;;;;;;;13.32;9.55;;;4.70;1.00;;;;;;5171104;27;20272;-78
2023/12/14 04:01:36;;;;;;;11.65;9.40;;;4.80;1.00;;;;;;5152710;27;20268;-78
2023/12/14 04:04:04;;;;;;;12.18;8.63;;;4.70;1.00;;;;;;5148406;27;20269;-78
2023/12/14 04:06:32;;;;;;;15.38;9.55;;;4.80;1.00;;;;;;5161617;27;20333;-79
2023/12/14 04:08:59;;;;;;;10.45;8.75;;;4.80;1.00;;;;;;5165944;27;20284;-78
2023/12/14 04:11:26;;;;;;;11.40;9.20;;;4.90;1.00;;;;;;5158408;27;20233;-78
2023/12/14 04:13:54;;;;;;;14.55;10.13;;;4.90;1.00;;;;;;5166991;27;21090;-79
2023/12/14 04:16:22;;;;;;;13.00;9.15;;;4.90;1.00;;;;;;5169827;27;20229;-78
2023/12/14 04:18:49;;;;;;;11.55;9.63;;;4.90;1.00;;;;;;5168055;27;20242;-79
2023/12/14 04:21:16;;;;;;;10.23;8.70;;;4.80;1.00;;;;;;5158682;27;20306;-79
2023/12/14 04:23:45;;;;;;;13.10;9.52;;;4.80;1.00;;;;;;5170749;27;20260;-79
2023/12/14 04:26:13;;;;;;;10.95;9.73;;;4.80;1.00;;;;;;5172402;27;20309;-83
2023/12/14 04:28:43;;;;;;;10.30;8.50;;;4.80;1.00;;;;;;5170278;27;20229;-81
2023/12/14 04:31:11;;;;;;;12.35;8.88;;;4.70;1.00;;;;;;5172951;27;20244;-81
2023/12/14 04:33:38;;;;;;;11.57;9.05;;;4.70;1.00;;;;;;5171210;27;21108;-80
2023/12/14 04:36:06;;;;;;;10.60;8.95;;;4.70;1.00;;;;;;5166514;27;20322;-80
2023/12/14 04:38:33;;;;;;;10.88;8.43;;;4.70;1.00;;;;;;5166764;27;20257;-79
2023/12/14 04:41:01;;;;;;;10.02;9.02;;;4.70;1.00;;;;;;5150898;27;20231;-79
2023/12/14 04:43:30;;;;;;;11.13;8.90;;;4.70;1.00;;;;;;5160612;27;20238;-79
2023/12/14 04:45:57;;;;;;;11.38;8.98;;;4.70;1.00;;;;;;5150730;27;20225;-78
2023/12/14 04:48:24;;;;;;;11.00;8.85;;;4.70;1.00;;;;;;5159938;27;20359;-79
2023/12/14 04:50:52;;;;;;;12.32;9.55;;;4.70;1.00;;;;;;5160242;27;20739;-80
2023/12/14 04:53:19;;;;;;;11.07;8.82;;;4.70;1.00;;;;;;5172753;27;20233;-80
2023/12/14 04:55:46;;;;;;;11.18;8.57;;;4.70;1.00;;;;;;5154996;27;20234;-80
2023/12/14 04:58:16;;;;;;;13.55;9.15;;;4.60;1.00;;;;;;5164187;27;20242;-79
2023/12/14 05:00:43;;;;;;;9.57;8.60;;;4.70;1.00;;;;;;5180934;27;20606;-80
2023/12/14 05:03:11;;;;;;;9.55;8.50;;;4.70;1.00;;;;;;5191681;27;20351;-80
2023/12/14 05:05:37;;;;;;;10.32;8.68;;;4.70;1.00;;;;;;5171437;27;20305;-80
2023/12/14 05:08:05;;;;;;;14.07;9.60;;;4.70;1.00;;;;;;5193322;27;20698;-80
2023/12/14 05:10:32;;;;;;;12.15;10.02;;;4.70;1.00;;;;;;5190273;27;20241;-79
2023/12/14 05:12:59;;;;;;;11.13;8.73;;;4.80;1.00;;;;;;5193616;27;20286;-79
2023/12/14 05:15:27;;;;;;;13.88;10.40;;;4.80;1.00;;;;;;5190654;27;20228;-81
2023/12/14 05:17:54;;;;;;;11.65;9.60;;;4.80;1.00;;;;;;5192284;27;20244;-80
2023/12/14 05:20:21;;;;;;;18.00;12.30;;;4.90;1.00;;;;;;5191401;27;20234;-81
2023/12/14 05:22:49;;;;;;;12.15;9.85;;;4.90;1.00;;;;;;5174157;27;20325;-81
2023/12/14 05:25:16;;;;;;;10.80;9.60;;;4.90;1.00;;;;;;5193395;27;20936;-80
2023/12/14 05:27:43;;;;;;;11.88;9.05;;;4.90;1.00;;;;;;5192230;27;20996;-81
2023/12/14 05:30:10;;;;;;;12.57;9.50;;;4.90;1.00;;;;;;5191568;27;20232;-81
2023/12/14 05:32:43;;;;;;;14.07;10.02;;;4.90;1.00;;;;;;5193153;27;20293;-81
2023/12/14 05:35:11;;;;;;;11.70;9.93;;;4.90;1.00;;;;;;5188628;27;20225;-80
2023/12/14 05:37:41;;;;;;;11.10;9.32;;;4.90;1.00;;;;;;5190803;27;21037;-81
2023/12/14 05:40:10;;;;;;;11.05;9.60;;;5.00;1.00;;;;;;5189468;27;20245;-81
2023/12/14 05:42:37;;;;;;;15.50;10.25;;;4.90;1.00;;;;;;5188447;27;20236;-81
2023/12/14 05:45:05;;;;;;;11.60;10.40;;;5.00;1.00;;;;;;5190717;27;20252;-81
2023/12/14 05:47:34;;;;;;;9.57;8.27;;;5.00;1.00;;;;;;5191274;27;20229;-80
2023/12/14 05:50:04;;;;;;;10.60;9.50;;;5.00;1.00;;;;;;5188342;27;20312;-80
2023/12/14 05:52:31;;;;;;;10.95;9.85;;;5.00;1.00;;;;;;5187613;27;20332;-80
2023/12/14 05:54:58;;;;;;;10.38;8.23;;;5.10;1.00;;;;;;5189166;27;20260;-80
2023/12/14 05:57:25;;;;;;;9.80;8.70;;;5.10;1.00;;;;;;5184620;27;20235;-80
2023/12/14 05:59:52;;;;;;;12.55;9.10;;;5.10;1.00;;;;;;5191166;27;20260;-80
2023/12/14 06:02:20;;;;;;;12.35;9.35;;;5.10;1.00;;;;;;5190832;27;20232;-81
2023/12/14 06:04:47;;;;;;;11.07;8.93;;;5.10;1.00;;;;;;5189826;27;20958;-80
2023/12/14 06:07:17;;;;;;;10.73;8.70;;;5.00;1.00;;;;;;5195335;27;20261;-81
2023/12/14 06:09:44;;;;;;;9.70;8.13;;;5.00;1.00;;;;;;5186463;27;20282;-81
2023/12/14 06:12:11;;;;;;;9.75;8.10;;;5.00;1.00;;;;;;5193660;27;20415;-81
2023/12/14 06:14:38;;;;;;;14.38;10.35;;;5.10;1.00;;;;;;5191224;27;20347;-81
2023/12/14 06:17:05;;;;;;;10.25;9.18;;;5.10;1.00;;;;;;5179028;27;20264;-80
2023/12/14 06:19:32;;;;;;;9.88;8.48;;;5.10;1.00;;;;;;5191971;27;20953;-81
2023/12/14 06:21:59;;;;;;;8.27;7.43;;;5.00;1.00;;;;;;5195354;27;20329;-80
2023/12/14 06:24:27;;;;;;;9.45;7.50;;;5.00;1.00;;;;;;5189853;27;20241;-80
2023/12/14 06:26:55;;;;;;;9.00;7.90;;;4.90;1.00;;;;;;5195036;27;21048;-80
2023/12/14 06:29:22;;;;;;;9.65;8.07;;;5.00;1.00;;;;;;5189581;27;20280;-81
2023/12/14 06:31:51;;;;;;;9.63;8.63;;;4.90;1.00;;;;;;5193795;27;20257;-81
2023/12/14 06:34:18;;;;;;;8.65;7.78;;;4.90;1.00;;;;;;5193402;27;20230;-80
2023/12/14 06:36:46;;;;;;;9.90;8.60;;;4.90;1.00;;;;;;5194430;27;20225;-80
2023/12/14 06:39:14;;;;;;;9.15;8.05;;;4.90;1.00;;;;;;5198254;27;20237;-81
2023/12/14 06:41:42;;;;;;;12.05;9.88;;;4.90;1.00;;;;;;5193414;27;21149;-80
2023/12/14 06:44:10;;;;;;;10.35;8.73;;;4.90;1.00;;;;;;5195227;27;20282;-80
2023/12/14 06:46:37;;;;;;;12.60;9.88;;;4.90;1.00;;;;;;5192472;27;20233;-80
2023/12/14 06:49:04;;;;;;;11.55;9.35;;;4.90;1.00;;;;;;5194643;27;20236;-80
2023/12/14 06:51:31;;;;;;;12.45;9.75;;;4.80;1.00;;;;;;5192155;27;20232;-80
2023/12/14 06:53:58;;;;;;;13.00;9.90;;;4.80;1.00;;;;;;5194404;27;20238;-79
2023/12/14 06:56:26;;;;;;;12.73;10.25;;;4.90;1.00;;;;;;5190655;27;20699;-80
2023/12/14 06:58:57;;;;;;;12.38;10.23;;;4.90;1.00;;;;;;5189916;27;20451;-79
2023/12/14 07:01:26;;;;;;;13.85;9.60;;;4.90;1.00;;;;;;5194765;27;20408;-80
2023/12/14 07:03:53;;;;;;;13.38;9.75;;;4.90;1.00;;;;;;5195553;27;20302;-80
2023/12/14 07:06:22;;;;;;;13.40;10.60;;;4.90;1.00;;;;;;5190302;27;20237;-80
2023/12/14 07:08:50;;;;;;;11.20;10.20;;;5.00;1.00;;;;;;5193767;27;20779;-79
2023/12/14 07:11:17;;;;;;;11.70;10.50;;;5.00;1.00;;;;;;5192367;27;20305;-80
2023/12/14 07:13:47;;;;;;;12.63;10.30;;;5.00;1.00;;;;;;5194153;27;20252;-80
2023/12/14 07:16:17;;;;;;;12.65;11.43;;;5.00;1.00;;;;;;5190475;27;20233;-80
2023/12/14 07:18:44;;;;;;;12.00;10.70;;;5.00;1.00;;;;;;5195595;27;20236;-79
2023/12/14 07:21:12;;;;;;;16.77;11.38;;;5.10;1.00;;;;;;5174483;27;20673;-80
2023/12/14 07:23:39;;;;;;;24.70;15.75;;;5.10;1.00;;;;;;5193978;27;20313;-80
2023/12/14 07:26:06;;;;;;;14.40;12.02;;;5.10;1.00;;;;;;5177789;27;20299;-79
2023/12/14 07:28:34;;;;;;;17.88;13.52;;;5.00;1.00;;;;;;5184003;27;20237;-80
2023/12/14 07:31:03;;;;;;;13.88;11.93;;;5.10;1.00;;;;;;5191795;27;20384;-78
2023/12/14 07:33:31;;;;;;;12.35;10.32;;;5.00;1.00;;;;;;5193831;27;20236;-81
2023/12/14 07:35:59;;;;;;;19.75;12.80;;;5.10;1.00;;;;;;5195095;27;20324;-80
2023/12/14 07:38:29;;;;;;;12.95;10.95;;;5.10;1.00;;;;;;5194341;27;20230;-80
2023/12/14 07:40:57;;;;;;;13.23;10.90;;;5.20;1.00;;;;;;5190626;27;20730;-80
2023/12/14 07:43:25;;;;;;;11.80;9.70;;;5.20;1.00;;;;;;5192986;27;20229;-79
2023/12/14 07:45:52;;;;;;;13.73;12.23;;;5.20;1.00;;;;;;5192887;27;20304;-80
2023/12/14 07:48:19;;;;;;;12.02;10.40;;;5.20;1.00;;;;;;5193877;27;20603;-79
2023/12/14 07:50:48;;;;;;;19.58;16.23;;;5.20;1.00;;;;;;5169507;27;20771;-80
2023/12/14 07:53:15;;;;;;;15.80;11.15;;;5.20;1.00;;;;;;5186905;27;21025;-80
2023/12/14 07:55:42;;;;;;;15.95;12.30;;;5.20;1.00;;;;;;5193696;27;20233;-80
2023/12/14 07:58:09;;;;;;;13.45;12.05;;;5.20;1.00;;;;;;5192914;27;20326;-80
2023/12/14 08:00:36;;;;;;;17.50;11.70;;;5.10;1.00;;;;;;5194759;27;21131;-80
2023/12/14 08:03:04;;;;;;;15.20;11.73;;;5.10;1.00;;;;;;5194082;27;20266;-80
2023/12/14 08:05:32;;;;;;;15.68;12.88;;;5.00;1.00;;;;;;5194626;27;20640;-80
2023/12/14 08:08:00;;;;;;;13.60;11.18;;;5.10;1.00;;;;;;5192649;27;20324;-80
2023/12/14 08:10:29;;;;;;;17.95;14.30;;;5.10;1.00;;;;;;5188835;27;20310;-80
2023/12/14 08:12:58;;;;;;;15.30;13.70;;;5.10;1.00;;;;;;5193739;27;20784;-80
2023/12/14 08:15:25;;;;;;;16.00;13.30;;;5.20;1.00;;;;;;5190914;27;20264;-80
2023/12/14 08:17:56;;;;;;;14.82;13.23;;;5.20;1.00;;;;;;5192819;27;20237;-79
2023/12/14 08:20:23;;;;;;;14.40;13.00;;;5.20;1.00;;;;;;5188053;27;20700;-79
2023/12/14 08:22:52;;;;;;;14.27;12.25;;;5.20;1.00;;;;;;5192496;27;20300;-80
2023/12/14 08:25:20;;;;;;;17.70;13.50;;;5.20;1.00;;;;;;5194767;27;20327;-80
2023/12/14 08:27:47;;;;;;;15.70;13.68;;;5.20;1.00;;;;;;5191501;27;20771;-81
2023/12/14 08:30:17;;;;;;;20.98;15.15;;;5.10;1.00;;;;;;5195208;27;20235;-81
2023/12/14 08:32:45;;;;;;;17.48;14.25;;;5.10;1.00;;;;;;5192161;27;20234;-81
2023/12/14 08:35:12;;;;;;;19.25;15.30;;;5.10;1.00;;;;;;5193016;27;20250;-81
2023/12/14 08:37:38;;;;;;;18.65;15.13;;;5.20;1.00;;;;;;5191592;27;20319;-81
2023/12/14 08:40:07;;;;;;;15.60;14.00;;;5.20;1.00;;;;;;5179939;27;20410;-80
2023/12/14 08:42:36;;;;;;;16.38;13.95;;;5.30;1.00;;;;;;5193046;27;20462;-81
2023/12/14 08:45:04;;;;;;;18.20;13.65;;;5.20;1.00;;;;;;5195162;27;20336;-81
2023/12/14 08:47:31;;;;;;;17.33;14.18;;;5.20;1.00;;;;;;5184625;27;20241;-82
2023/12/14 08:49:58;;;;;;;13.75;11.75;;;5.20;1.00;;;;;;5180198;27;20282;-80
2023/12/14 08:52:27;;;;;;;14.90;12.88;;;5.20;1.00;;;;;;5192149;27;20250;-80
2023/12/14 08:54:54;;;;;;;17.77;14.80;;;5.20;1.00;;;;;;5192954;27;21060;-81
2023/12/14 08:57:21;;;;;;;15.00;13.50;;;5.20;1.00;;;;;;5193323;27;21151;-79
2023/12/14 08:59:50;;;;;;;14.20;12.80;;;5.10;1.00;;;;;;5193719;27;20231;-80
2023/12/14 09:02:17;;;;;;;15.55;13.88;;;5.10;1.00;;;;;;5190613;27;20285;-79
2023/12/14 09:04:45;;;;;;;16.25;12.73;;;5.20;1.00;;;;;;5194103;27;20240;-79
2023/12/14 09:07:12;;;;;;;15.40;13.68;;;5.20;1.00;;;;;;5192698;27;20343;-80
2023/12/14 09:09:39;;;;;;;17.30;14.02;;;5.20;1.00;;;;;;5191098;27;20232;-81
2023/12/14 09:12:06;;;;;;;17.15;14.20;;;5.20;1.00;;;;;;5191894;27;20940;-80
2023/12/14 09:14:34;;;;;;;17.00;15.18;;;5.20;1.00;;;;;;5194607;27;21562;-80
2023/12/14 09:17:02;;;;;;;16.48;13.85;;;5.20;1.00;;;;;;5191084;27;20703;-80
2023/12/14 09:19:31;;;;;;;18.45;15.88;;;5.30;1.00;;;;;;5192742;27;20360;-80
2023/12/14 09:21:58;;;;;;;15.07;13.48;;;5.30;1.00;;;;;;5192459;27;20229;-80
2023/12/14 09:24:25;;;;;;;13.85;11.80;;;5.30;1.00;;;;;;5192797;27;21111;-80
2023/12/14 09:26:53;;;;;;;14.68;12.65;;;5.30;1.00;;;;;;5191515;27;20261;-80
2023/12/14 09:29:20;;;;;;;15.55;13.45;;;5.30;1.00;;;;;;5193291;27;20233;-80
2023/12/14 09:31:48;;;;;;;13.80;12.05;;;5.40;1.00;;;;;;5194949;27;20285;-81
2023/12/14 09:34:16;;;;;;;12.57;11.27;;;5.40;1.00;;;;;;5192579;27;20268;-80
2023/12/14 09:36:43;;;;;;;13.43;12.05;;;5.50;1.00;;;;;;5188882;27;20261;-81
2023/12/14 09:39:11;;;;;;;14.98;11.13;;;5.40;1.00;;;;;;5190818;27;20241;-80
2023/12/14 09:41:39;;;;;;;12.50;11.15;;;5.50;1.00;;;;;;5194528;27;20873;-80
2023/12/14 09:44:07;;;;;;;10.82;9.70;;;5.50;1.00;;;;;;5192626;27;20281;-80
2023/12/14 09:46:38;;;;;;;13.10;10.82;;;5.50;1.00;;;;;;5192953;27;21572;-81
2023/12/14 09:49:06;;;;;;;13.43;12.02;;;5.50;1.00;;;;;;5195586;27;20281;-80
2023/12/14 09:51:34;;;;;;;14.02;10.60;;;5.40;1.00;;;;;;5189587;27;20234;-80
2023/12/14 09:54:01;;;;;;;12.10;10.82;;;5.40;1.00;;;;;;5196403;27;20294;-80
2023/12/14 09:56:28;;;;;;;10.90;9.63;;;5.40;1.00;;;;;;5194928;27;21095;-80
2023/12/14 09:58:56;;;;;;;12.52;11.18;;;5.40;1.00;;;;;;5198567;27;20234;-80
2023/12/14 10:01:24;;;;;;;13.15;10.73;;;5.40;1.00;;;;;;5196681;27;20233;-81
2023/12/14 10:04:07;;;;;;;13.32;9.93;;;5.40;1.00;;;;;;5193782;27;20317;-81
2023/12/14 10:06:36;;;;;;;12.35;11.15;;;5.50;1.00;;;;;;5196819;27;20232;-80
2023/12/14 10:09:03;;;;;;;13.93;11.65;;;5.40;1.00;;;;;;5198991;27;20263;-80
2023/12/14 10:11:30;;;;;;;14.15;12.07;;;5.50;1.00;;;;;;5174238;27;20702;-80
2023/12/14 10:13:58;;;;;;;13.50;11.60;;;5.50;1.00;;;;;;5194596;27;20228;-82
2023/12/14 10:16:30;;;;;;;15.75;12.95;;;5.50;1.00;;;;;;5194694;27;20306;-80
2023/12/14 10:18:58;;;;;;;13.75;12.27;;;5.50;1.00;;;;;;5196651;27;20334;-79
2023/12/14 10:21:25;;;;;;;17.25;12.95;;;5.50;1.00;;;;;;5193347;27;20974;-80
2023/12/14 10:23:57;;;;;;;13.15;11.60;;;5.50;1.00;;;;;;5191134;27;20250;-81
2023/12/14 10:26:27;;;;;;;17.08;13.90;;;5.60;1.00;;;;;;5192855;27;20237;-79
2023/12/14 10:28:54;;;;;;;14.32;12.82;;;5.60;1.00;;;;;;5191810;27;20233;-81
2023/12/14 10:31:21;;;;;;;14.50;12.85;;;5.60;1.00;;;;;;5194782;27;20390;-82
2023/12/14 10:33:50;;;;;;;15.70;13.35;;;5.60;1.00;;;;;;5193902;27;20320;-79
2023/12/14 10:36:22;;;;;;;16.60;13.77;;;5.60;1.00;;;;;;5173505;27;20230;-79
2023/12/14 10:38:53;;;;;;;15.75;13.48;;;5.70;1.00;;;;;;5164244;27;20262;-80
2023/12/14 10:41:23;;;;;;;18.15;13.00;;;5.60;1.00;;;;;;5176747;27;20259;-80
2023/12/14 10:43:52;;;;;;;15.15;12.65;;;5.60;1.00;;;;;;5193944;27;20258;-79
2023/12/14 10:46:20;;;;;;;13.80;11.93;;;5.60;1.00;;;;;;5188509;27;20238;-80
2023/12/14 10:48:49;;;;;;;14.63;13.13;;;5.60;1.00;;;;;;5194183;27;20712;-80
2023/12/14 10:51:18;;;;;;;17.35;13.55;;;5.70;1.00;;;;;;5192044;27;20252;-80
2023/12/14 10:53:48;;;;;;;19.48;17.45;;;5.70;1.00;;;;;;5196519;27;20234;-79
2023/12/14 10:56:19;;;;;;;16.90;14.52;;;5.70;1.00;;;;;;5195883;27;20244;-80
2023/12/14 10:58:49;;;;;;;15.63;13.75;;;5.70;1.00;;;;;;5193813;27;20231;-79
2023/12/14 11:01:17;;;;;;;16.38;14.15;;;5.70;1.00;;;;;;5194143;27;20287;-79
2023/12/14 11:03:45;;;;;;;18.75;15.25;;;5.80;1.00;;;;;;5194979;27;20243;-80
2023/12/14 11:06:30;;;;;;;17.38;13.10;;;5.80;1.00;;;;;;5194281;27;20816;-79
2023/12/14 11:08:59;;;;;;;15.05;12.73;;;5.80;1.00;;;;;;5190112;27;20320;-81
2023/12/14 11:11:31;;;;;;;15.15;12.32;;;5.80;1.00;;;;;;5193020;27;20357;-80
2023/12/14 11:14:04;;;;;;;16.25;13.82;;;5.80;1.00;;;;;;5191446;27;20245;-81
2023/12/14 11:16:31;;;;;;;13.82;12.38;;;5.80;1.00;;;;;;5193382;27;21084;-81
2023/12/14 11:19:28;;;;;;;15.07;12.27;;;5.80;1.00;;;;;;5195128;27;20230;-81
2023/12/14 11:22:15;;;;;;;15.95;12.05;;;5.70;1.00;;;;;;5191789;27;20322;-80
2023/12/14 11:24:53;;;;;;;14.73;12.15;;;5.70;1.00;;;;;;5193568;27;20734;-80
2023/12/14 11:27:28;;;;;;;17.10;14.00;;;5.80;1.00;;;;;;5191770;27;20232;-80
2023/12/14 11:30:01;;;;;;;14.07;12.57;;;5.80;1.00;;;;;;5194675;27;20246;-79
2023/12/14 11:32:30;;;;;;;14.00;12.30;;;5.80;1.00;;;;;;5194903;27;20292;-79
2023/12/14 11:34:57;;;;;;;17.45;13.65;;;5.90;1.00;;;;;;5190774;27;20290;-80
2023/12/14 11:37:24;;;;;;;16.90;15.10;;;5.90;1.00;;;;;;5191078;27;20232;-79
2023/12/14 11:39:53;;;;;;;15.60;13.85;;;6.00;1.00;;;;;;5194933;27;20237;-78
2023/12/14 11:42:20;;;;;;;14.55;13.10;;;6.00;1.00;;;;;;5191473;27;20251;-78
2023/12/14 11:44:47;;;;;;;15.15;13.48;;;6.00;1.00;;;;;;5191754;27;20286;-79
2023/12/14 11:47:18;;;;;;;15.48;13.82;;;6.00;1.00;;;;;;5195089;27;20999;-80
2023/12/14 11:49:45;;;;;;;14.32;12.00;;;6.10;1.00;;;;;;5195311;27;20238;-79
2023/12/14 11:52:12;;;;;;;14.55;12.40;;;6.10;1.00;;;;;;5193847;27;20233;-79
2023/12/14 11:54:39;;;;;;;14.52;12.55;;;6.10;1.00;;;;;;5190028;27;20265;-78
2023/12/14 11:57:08;;;;;;;17.95;14.88;;;6.00;1.00;;;;;;5190387;27;20256;-80
2023/12/14 11:59:36;;;;;;;13.35;12.13;;;5.90;1.00;;;;;;5194690;27;20238;-78
2023/12/14 12:02:03;;;;;;;13.85;12.48;;;6.00;1.00;;;;;;5196147;27;21051;-78
2023/12/14 12:04:31;;;;;;;16.98;15.18;;;6.00;1.00;;;;;;5192367;27;20233;-78
2023/12/14 12:07:02;;;;;;;13.90;11.85;;;6.00;1.00;;;;;;5192295;27;20232;-79
2023/12/14 12:09:36;;;;;;;12.63;11.38;;;6.10;1.00;;;;;;5189884;27;21321;-79
2023/12/14 12:12:06;;;;;;;14.00;12.45;;;6.10;1.00;;;;;;5193618;27;20218;-79
2023/12/14 12:14:33;;;;;;;13.20;11.80;;;6.20;1.00;;;;;;5170801;27;20313;-80
2023/12/14 12:17:00;;;;;;;13.10;11.80;;;6.10;1.00;;;;;;5189270;27;20920;-80
2023/12/14 12:19:27;;;;;;;14.50;13.05;;;6.10;1.00;;;;;;5191325;27;20252;-80
2023/12/14 12:21:56;;;;;;;12.13;10.82;;;6.20;1.00;;;;;;5192961;27;20316;-80
2023/12/14 12:24:23;;;;;;;14.27;12.77;;;6.20;1.00;;;;;;5194614;27;20324;-80
2023/12/14 12:26:50;;;;;;;16.08;13.88;;;6.20;1.00;;;;;;5196054;27;20713;-80
2023/12/14 12:29:17;;;;;;;14.65;12.93;;;6.20;1.00;;;;;;5193037;27;20251;-80
2023/12/14 12:31:46;;;;;;;14.43;12.93;;;6.10;1.00;;;;;;5194840;27;20241;-80
2023/12/14 12:34:15;;;;;;;17.45;15.25;;;6.10;1.00;;;;;;5194525;27;21061;-79
2023/12/14 12:36:43;;;;;;;14.50;13.10;;;6.10;1.00;;;;;;5194329;27;20233;-79
2023/12/14 12:39:11;;;;;;;14.32;12.82;;;6.10;1.00;;;;;;5195942;27;20246;-80
2023/12/14 12:41:39;;;;;;;20.65;18.75;;;6.10;1.00;;;;;;5168128;27;20263;-80
2023/12/14 12:44:08;;;;;;;18.77;16.75;;;6.10;1.00;;;;;;5195839;27;20250;-78
2023/12/14 12:46:36;;;;;;;16.30;14.73;;;6.10;1.00;;;;;;5180980;27;20284;-79
2023/12/14 12:49:05;;;;;;;16.80;15.10;;;6.10;1.00;;;;;;5186263;27;20330;-79
2023/12/14 12:51:31;;;;;;;14.90;13.40;;;6.10;1.00;;;;;;5195188;27;20709;-79
2023/12/14 12:53:59;;;;;;;13.88;12.57;;;6.10;1.00;;;;;;5196814;27;20487;-79
2023/12/14 12:56:28;;;;;;;13.70;12.13;;;6.20;1.00;;;;;;5193841;27;20246;-79
2023/12/14 12:58:57;;;;;;;13.52;12.13;;;6.10;1.00;;;;;;5192318;27;20702;-78